My Meet Scores
Rylie Walter, Aspire Gymnastics Academy - MyMeetScores.com
Top100 | Top Teams | Upcoming Meets | Completed Meets | Latest | Add Scores | Help| Support | Bookmark and Share

Rylie Walter, Aspire Gymnastics Academy
Personal Bests
LevelVault BarsBeamFloorAA
39.7259.475 9.1009.35037.250
49.0009.250 9.2509.00036.100
59.4759.050 9.3509.50036.650
79.1509.350 9.4509.45037.050
Meet Scores
Date Meet Team Session Level Division Vault Bars Beam Floor AA
2019-03-29 Illinois Level 7 & 8 State Meet Aspire Gymnastics Academy 7 7 Jr D 9.100 12T 9.350 8T 9.250 12 9.225 14T 36.925 10T
2019-03-08 Lucky Invite Aspire Gymnastics Academy A01 7 Jr A 8.725 6 8.850 14 8.900 10 9.250 4 35.725 10
2019-02-22 Great Western Invitational - Women's Aspire Gymnastics Academy 11 7 Filly 8.600 10 9.250 9 9.250 13 9.075 16 36.175 10
2019-02-15 Big ClassicBIG CLASSIC Aspire Gymnastics Academy 2B 7 Junior B 9.150 5 9.000 6 9.450 2T 9.450 3T 37.050 4
2019-02-08 Arizona Sunrays Classic Rock Invitational Aspire Gymnastics Academy B04 7 Jr B 8.400 18 8.825 10T 9.050 9T 9.325 9T 35.600 12
2019-01-25 UGA Invitational Aspire Gymnastics Academy A03 7 Jr B 8.700 7 9.075 7 8.950 7 9.100 10T 35.825 6
2019-01-18 2019 Bravo Classic Aspire Gymnastics Academy 10A 7 Jr 8.750 9 9.000 8 8.900 10 9.350 8 36.000 6
2018-12-14 2018 Aspire Classic Aspire Gymnastics Academy 10B 7 Middle 8.800 6T 9.200 4 9.075 7 9.350 5 36.425 5
2018-11-17 Paul Hamm Thanksgiving Class WOMENS Aspire Gymnastics Academy 7 7 Older 8.950 7 8.075 16 9.000 8 9.150 11 35.175 10
2018-03-08 Level 4 & 5 State Aspire Gymnastics Academy 11 5 Jr A 9.475 4 8.950 14 9.000 15 9.225 9T 36.650 8
2018-02-16 Big Classic Aspire Gymnastics Academy 4A 5 Child B 9.150 3 8.450 15 8.400 9* 9.200 6T 35.200 9T
2018-01-26 2018 UGA Classic Aspire Gymnastics Academy B8 5 Junior 9.225 4 9.000 5 8.675 11 9.500 1 36.400 3
2018-01-19 2018 Bravo Classic Aspire Gymnastics Academy 3B 5 Jr 9.150 14 8.950 15T 8.800 16 9.325 6 36.225 12T
2017-12-15 2017 Aspire Classic Aspire Gymnastics Academy 6A 5 Younger 9.100 6T 8.725 14 8.850 11T 9.475 6 36.150 9T
2017-12-08 St. Nick Invite Aspire Gymnastics Academy 4 5 JrB 9.100 4 8.625 11T 9.350 8T 9.275 2T 36.350 5
2017-11-16 Paul Hamm Thanksgiving Classic - Women Aspire Gymnastics Academy 8 5 Younger 9.325 8T 9.050 12 8.950 16T 9.175 6 36.500 9T
2017-03-10 2017 Illinois Level 4 State Championships Aspire Gymnastics Academy 3 4 Youth B 8.850 12 8.525 26 9.125 14T 8.850 21 35.350 17
2017-02-24 Kinetic Classic Aspire Gymnastics Academy 5,6 4 All Ages 8.600 83T 8.575 84T 8.775 92T 9.000 63T 34.950 83T
2017-02-18 2017 Great Western Invitational Women's Aspire Gymnastics Academy 5 4 Pony 8.925 2 8.750 8 9.150 10 8.750 13 35.575 7T
2017-01-27 2017 UGA Invitational Aspire Gymnastics Academy C12 4 Junior 9.000 2 8.975 7 9.150 6 8.975 10 36.100 4
2017-01-20 2017 Bravo Classic Aspire Gymnastics Academy 05B 4 9yrs 8.450 5 9.250 4 9.125 9 8.675 13 35.500 5
2016-12-16 2016 Aspire Classic Aspire Gymnastics Academy 7 4 Middle 9.000 5T 8.750 15 9.250 13T 8.675 17T 35.675 13
2016-12-09 St. Nick Invite Aspire Gymnastics Academy 6 4 Junior 8.525 10T 8.600 20T 9.100 17 8.525 23 34.750 19
2016-11-19 Paul Hamm Thanksgiving Classic - 2016 Girls Aspire Gymnastics Academy 7 4 9 yrs 8.600 6T 8.200 25T 9.225 7T 8.650 22T 34.675 17
2016-03-04 2016 Illinois Level 3 State Championships Aspire Gymnastics Academy 3 Youth-E 9.725 5 9.475 7 8.900 8 9.150 12 37.250 6
2016-02-13 Western Invite Aspire Gymnastics Academy 2 3 Pony 9.050 18T 9.150 10T 9.075 9T 9.150 11 36.425 12
2016-01-15 2016 Bravo Classic Aspire Gymnastics Academy 15A 3 8yrs 9.150 12T 9.250 11T 9.025 8T 9.075 10 36.500 9
2015-12-18 2015 Aspire Classic Aspire Gymnastics Academy 10 3 Middle 9.350 11T 9.275 14 9.050 18 9.275 14T 36.950 17
2015-12-11 St. Nick Invite Aspire Gymnastics Academy 6A 3 All 9.500 5T 8.800 7T 9.100 8T 9.350 4T 36.750 2
2015-02-14 2015 Great Western Invitational Aspire Gymnastics Academy 4 3 Filly 8.550 19T 8.900 4 7.350 18T 7.850 19 32.650 15
Get your scores on
a t-shirt, pin, or hoodie

www.lazysuits.com